Time;durP1;ratioP1;P1;durP2;ratioP2;P2;SDS_P1;SDS_P2;PMS_P1;PMS_P2;Temp;Humidity;BMP_temperature;BMP_pressure;BME280_temperature;BME280_humidity;BME280_pressure;Samples;Min_cycle;Max_cycle;Signal;HPM_P1;HPM_P2
2022/06/16 00:02:16;;;;;;;3.90;2.30;;;16.80;99.00;;;;;;5074347;28;20021;-70
2022/06/16 00:04:46;;;;;;;3.85;2.58;;;16.70;99.40;;;;;;5056569;28;20037;-70
2022/06/16 00:07:13;;;;;;;6.20;2.60;;;16.50;99.90;;;;;;5074844;28;20016;-70
2022/06/16 00:09:39;;;;;;;2.88;2.38;;;16.40;99.90;;;;;;5075056;28;20017;-70
2022/06/16 00:12:05;;;;;;;4.70;2.30;;;16.30;99.90;;;;;;5074466;28;20024;-70
2022/06/16 00:14:31;;;;;;;4.35;2.40;;;16.30;99.90;;;;;;5074321;28;20024;-71
2022/06/16 00:16:56;;;;;;;4.20;2.30;;;16.30;99.90;;;;;;5074314;28;20089;-71
2022/06/16 00:19:22;;;;;;;4.43;2.38;;;16.30;99.90;;;;;;5074297;28;20027;-70
2022/06/16 00:21:48;;;;;;;3.95;2.60;;;16.40;99.90;;;;;;5074190;28;20031;-70
2022/06/16 00:24:14;;;;;;;3.13;2.63;;;16.40;99.90;;;;;;5074416;28;20017;-70
2022/06/16 00:26:39;;;;;;;6.82;2.88;;;16.40;99.90;;;;;;5074422;28;20070;-70
2022/06/16 00:29:05;;;;;;;3.72;2.92;;;16.40;99.90;;;;;;5074138;28;20027;-70
2022/06/16 00:31:31;;;;;;;4.47;2.85;;;16.40;99.90;;;;;;5073679;28;20028;-71
2022/06/16 00:33:56;;;;;;;4.80;2.80;;;16.30;99.90;;;;;;5074056;28;20024;-70
2022/06/16 00:36:24;;;;;;;4.68;2.70;;;16.30;99.90;;;;;;5073889;28;20482;-70
2022/06/16 00:38:49;;;;;;;4.50;3.10;;;16.20;99.90;;;;;;5073961;28;20025;-70
2022/06/16 00:41:15;;;;;;;5.13;3.10;;;16.10;99.90;;;;;;5073834;28;20389;-70
2022/06/16 00:43:41;;;;;;;4.70;2.97;;;16.20;99.90;;;;;;5073882;28;20012;-70
2022/06/16 00:46:15;;;;;;;3.67;2.15;;;16.20;99.90;;;;;;5074025;28;20033;-70
2022/06/16 00:48:49;;;;;;;3.58;2.55;;;16.20;99.90;;;;;;5073635;28;20384;-70
2022/06/16 00:51:39;;;;;;;3.50;2.45;;;16.20;99.90;;;;;;5073720;28;20063;-70
2022/06/16 00:54:27;;;;;;;5.05;2.53;;;16.30;99.90;;;;;;5073928;28;20032;-70
2022/06/16 00:56:55;;;;;;;3.13;2.22;;;16.20;99.90;;;;;;5074205;28;20060;-71
2022/06/16 00:59:22;;;;;;;3.72;2.53;;;16.20;99.90;;;;;;5073881;28;20032;-71
2022/06/16 01:01:48;;;;;;;5.63;2.60;;;16.20;99.90;;;;;;5073272;28;20024;-71
2022/06/16 01:07:04;;;;;;;3.75;2.47;;;16.10;99.90;;;;;;5054162;28;20393;-71
2022/06/16 01:09:33;;;;;;;4.55;2.35;;;16.10;99.90;;;;;;5053524;28;20055;-71
2022/06/16 01:15:00;;;;;;;5.30;2.53;;;16.10;99.90;;;;;;5053483;28;20044;-71
2022/06/16 01:17:57;;;;;;;2.97;2.40;;;16.00;99.90;;;;;;5053103;28;20488;-71
2022/06/16 01:20:43;;;;;;;4.63;2.55;;;16.00;99.90;;;;;;5053319;28;20075;-71
2022/06/16 01:23:31;;;;;;;4.68;2.70;;;15.90;99.90;;;;;;5053724;28;20473;-71
2022/06/16 01:26:19;;;;;;;5.35;2.55;;;15.90;99.90;;;;;;5065195;28;20016;-71
2022/06/16 01:29:19;;;;;;;4.32;2.60;;;15.90;99.90;;;;;;5073360;28;20086;-71
2022/06/16 01:32:19;;;;;;;4.88;2.47;;;15.80;99.90;;;;;;5072920;28;20380;-71
2022/06/16 01:35:09;;;;;;;3.38;2.67;;;15.80;99.90;;;;;;5073529;28;20428;-71
2022/06/16 01:38:12;;;;;;;3.80;2.55;;;15.80;99.90;;;;;;5073780;28;20032;-71
2022/06/16 01:41:04;;;;;;;4.47;2.60;;;15.60;99.90;;;;;;5055178;28;20031;-70
2022/06/16 01:43:37;;;;;;;8.77;3.08;;;15.40;99.90;;;;;;5050667;28;20041;-71
2022/06/16 01:46:23;;;;;;;3.75;2.40;;;15.30;99.90;;;;;;5077515;28;20020;-71
2022/06/16 01:48:55;;;;;;;5.18;2.85;;;15.20;99.90;;;;;;5077022;28;20077;-70
2022/06/16 01:51:21;;;;;;;3.92;3.30;;;15.00;99.90;;;;;;5059228;28;20484;-71
2022/06/16 01:53:52;;;;;;;5.82;4.20;;;14.90;99.90;;;;;;5077181;28;20063;-71
2022/06/16 01:56:27;;;;;;;6.78;4.65;;;14.90;99.90;;;;;;5076971;28;20422;-71
2022/06/16 01:59:00;;;;;;;7.40;5.57;;;14.90;99.90;;;;;;5077354;28;20037;-71
2022/06/16 02:01:30;;;;;;;7.25;4.38;;;15.00;99.90;;;;;;5077260;28;20035;-71
2022/06/16 02:04:04;;;;;;;5.75;4.18;;;15.00;99.90;;;;;;5076901;28;20013;-70
2022/06/16 02:06:33;;;;;;;6.13;3.50;;;15.00;99.90;;;;;;5076603;28;20029;-70
2022/06/16 02:09:06;;;;;;;5.28;2.83;;;15.00;99.90;;;;;;5076880;28;20021;-70
2022/06/16 02:11:34;;;;;;;4.13;2.72;;;15.00;99.90;;;;;;5077156;28;20415;-70
2022/06/16 02:14:06;;;;;;;4.65;2.80;;;15.00;99.90;;;;;;5076754;28;20546;-70
2022/06/16 02:16:34;;;;;;;4.93;3.72;;;15.10;99.90;;;;;;5076672;28;20024;-70
2022/06/16 02:19:04;;;;;;;4.55;2.95;;;15.00;99.90;;;;;;5076413;28;20495;-70
2022/06/16 02:21:34;;;;;;;3.60;2.55;;;15.00;99.90;;;;;;5076506;28;20033;-70
2022/06/16 02:24:02;;;;;;;3.63;2.47;;;15.00;99.90;;;;;;5076807;28;20031;-70
2022/06/16 02:26:28;;;;;;;5.43;2.50;;;14.90;99.90;;;;;;5076412;28;20070;-70
2022/06/16 02:28:56;;;;;;;6.40;2.92;;;14.90;99.90;;;;;;5076685;28;20028;-70
2022/06/16 02:31:56;;;;;;;3.33;2.58;;;14.80;99.90;;;;;;5076670;28;20438;-70
2022/06/16 02:34:41;;;;;;;5.15;3.17;;;14.80;99.90;;;;;;5076315;28;20185;-70
2022/06/16 02:37:17;;;;;;;4.63;3.40;;;14.60;99.90;;;;;;5076374;28;20024;-70
2022/06/16 02:39:49;;;;;;;4.03;3.10;;;14.50;99.90;;;;;;5076328;28;20445;-70
2022/06/16 02:42:35;;;;;;;4.53;2.95;;;14.40;99.90;;;;;;5076438;28;20024;-70
2022/06/16 02:45:13;;;;;;;5.65;3.33;;;14.40;99.90;;;;;;5076327;28;20067;-70
2022/06/16 02:47:58;;;;;;;8.55;3.40;;;14.40;99.90;;;;;;5076075;28;20358;-70
2022/06/16 02:50:51;;;;;;;3.70;2.85;;;14.50;99.90;;;;;;5058729;28;20021;-70
2022/06/16 02:56:49;;;;;;;5.05;3.03;;;14.50;99.90;;;;;;5075069;28;20091;-70
2022/06/16 02:59:20;;;;;;;4.38;3.35;;;14.50;99.90;;;;;;5075899;28;20013;-70
2022/06/16 03:01:46;;;;;;;4.20;3.00;;;14.60;99.90;;;;;;5076153;28;20036;-70
2022/06/16 03:04:15;;;;;;;3.97;2.80;;;14.60;99.90;;;;;;5075366;28;20032;-71
2022/06/16 03:06:42;;;;;;;6.05;3.10;;;14.50;99.90;;;;;;5076002;28;20476;-70
2022/06/16 03:09:08;;;;;;;4.55;3.05;;;14.50;99.90;;;;;;5075716;28;20039;-70
2022/06/16 03:11:35;;;;;;;4.65;3.03;;;14.50;99.90;;;;;;5075649;28;20111;-70
2022/06/16 03:14:02;;;;;;;4.55;2.78;;;14.50;99.90;;;;;;5076511;28;20545;-71
2022/06/16 03:16:28;;;;;;;5.13;2.63;;;14.50;99.90;;;;;;5075549;28;20020;-72
2022/06/16 03:18:54;;;;;;;5.47;3.30;;;14.50;99.90;;;;;;5075397;28;20032;-71
2022/06/16 03:21:20;;;;;;;6.00;3.70;;;14.50;99.90;;;;;;5075735;28;20024;-73
2022/06/16 03:23:45;;;;;;;6.00;3.28;;;14.50;99.90;;;;;;5075496;28;20031;-72
2022/06/16 03:26:12;;;;;;;6.35;3.85;;;14.50;99.90;;;;;;5075313;28;20423;-72
2022/06/16 03:28:37;;;;;;;5.05;3.15;;;14.40;99.90;;;;;;5075384;28;20510;-73
2022/06/16 03:31:03;;;;;;;5.35;3.35;;;14.40;99.90;;;;;;5075345;28;20024;-73
2022/06/16 03:33:29;;;;;;;4.80;3.20;;;14.30;99.90;;;;;;5075056;28;20102;-71
2022/06/16 03:35:55;;;;;;;4.45;3.35;;;14.20;99.90;;;;;;5075147;28;20064;-72
2022/06/16 03:40:56;;;;;;;5.13;2.97;;;14.20;99.90;;;;;;5075081;28;20020;-73
2022/06/16 03:43:21;;;;;;;4.63;3.03;;;14.20;99.90;;;;;;5075106;28;20039;-73
2022/06/16 03:45:47;;;;;;;5.18;3.20;;;14.20;99.90;;;;;;5074967;28;20024;-73
2022/06/16 03:48:13;;;;;;;4.38;2.97;;;14.30;99.90;;;;;;5074742;28;20469;-71
2022/06/16 03:50:39;;;;;;;4.35;3.30;;;14.30;99.90;;;;;;5074916;28;20535;-72
2022/06/16 03:53:05;;;;;;;4.38;3.35;;;14.30;99.90;;;;;;5074897;28;20024;-72
2022/06/16 03:55:31;;;;;;;5.45;3.15;;;14.20;99.90;;;;;;5074848;28;20115;-72
2022/06/16 03:57:58;;;;;;;4.60;3.03;;;14.20;99.90;;;;;;5056900;28;20025;-72
2022/06/16 04:00:24;;;;;;;5.00;3.65;;;14.20;99.90;;;;;;5074616;28;20021;-72
2022/06/16 04:03:59;;;;;;;4.40;3.47;;;14.20;99.90;;;;;;5056470;28;20473;-71
2022/06/16 04:05:39;;;;;;;5.50;3.30;;;14.20;99.90;;;;;;5074212;28;20036;-73
2022/06/16 04:08:05;;;;;;;4.20;3.40;;;14.20;99.90;;;;;;5056503;28;20021;-72
2022/06/16 04:10:31;;;;;;;4.25;3.28;;;14.20;99.90;;;;;;5074542;28;20029;-73
2022/06/16 04:12:56;;;;;;;5.32;3.70;;;14.20;99.90;;;;;;5074444;28;20020;-73
2022/06/16 04:15:22;;;;;;;6.28;4.00;;;14.20;99.90;;;;;;5074343;28;20021;-73
2022/06/16 04:17:47;;;;;;;4.97;4.00;;;14.20;99.90;;;;;;5074306;28;20419;-71
2022/06/16 04:20:13;;;;;;;4.80;3.88;;;14.10;99.90;;;;;;5074606;28;20468;-72
2022/06/16 04:22:40;;;;;;;6.07;3.95;;;14.00;99.90;;;;;;5074474;28;20028;-72
2022/06/16 04:25:09;;;;;;;6.68;4.38;;;14.00;99.90;;;;;;5074901;28;20020;-72
2022/06/16 04:27:35;;;;;;;7.93;4.43;;;14.10;99.90;;;;;;5074039;28;20059;-73
2022/06/16 04:30:02;;;;;;;5.35;3.78;;;14.10;99.90;;;;;;5074091;28;20031;-73
2022/06/16 04:32:27;;;;;;;7.47;4.03;;;14.20;99.90;;;;;;5074379;28;20032;-72
2022/06/16 04:34:53;;;;;;;6.25;3.65;;;14.20;99.90;;;;;;5074134;28;20025;-72
2022/06/16 04:37:19;;;;;;;7.47;3.65;;;14.30;99.90;;;;;;5056104;28;20086;-73
2022/06/16 04:39:44;;;;;;;5.47;3.58;;;14.40;99.90;;;;;;5073974;28;20020;-72
2022/06/16 04:42:11;;;;;;;8.43;4.50;;;14.40;99.90;;;;;;5074004;28;20431;-72
2022/06/16 04:44:39;;;;;;;7.15;4.00;;;14.40;99.90;;;;;;5073840;28;20051;-72
2022/06/16 04:47:06;;;;;;;6.55;4.15;;;14.40;99.90;;;;;;5073834;28;20020;-72
2022/06/16 04:49:32;;;;;;;6.72;4.70;;;14.40;99.90;;;;;;5073544;28;20020;-72
2022/06/16 04:51:58;;;;;;;7.43;4.57;;;14.50;99.90;;;;;;5073754;28;20507;-73
2022/06/16 04:54:23;;;;;;;5.93;4.43;;;14.50;99.90;;;;;;5073855;28;20064;-73
2022/06/16 04:56:50;;;;;;;6.50;4.57;;;14.60;99.90;;;;;;5073617;28;20031;-73
2022/06/16 04:59:15;;;;;;;7.65;5.00;;;14.60;99.90;;;;;;5073615;28;20032;-73
2022/06/16 05:01:41;;;;;;;6.07;4.95;;;14.60;99.90;;;;;;5073811;28;20024;-73
2022/06/16 05:04:07;;;;;;;6.07;4.38;;;14.70;99.90;;;;;;5073211;28;20063;-72
2022/06/16 05:06:32;;;;;;;6.40;4.30;;;14.70;99.90;;;;;;5073868;28;20063;-73
2022/06/16 05:08:58;;;;;;;7.05;4.72;;;14.80;99.90;;;;;;5073524;28;20021;-72
2022/06/16 05:11:24;;;;;;;7.07;4.85;;;14.80;99.90;;;;;;5073782;28;20024;-72
2022/06/16 05:13:50;;;;;;;8.23;5.43;;;14.90;99.90;;;;;;5073722;28;20031;-72
2022/06/16 05:16:15;;;;;;;8.45;5.50;;;14.90;99.90;;;;;;5072650;28;20029;-72
2022/06/16 05:18:41;;;;;;;10.10;6.03;;;15.00;99.90;;;;;;5072221;28;20392;-71
2022/06/16 05:21:15;;;;;;;9.82;5.57;;;15.10;99.90;;;;;;5054837;28;20031;-72
2022/06/16 05:23:41;;;;;;;7.28;5.07;;;15.10;99.90;;;;;;5072302;28;20103;-72
2022/06/16 05:26:08;;;;;;;8.27;5.50;;;15.20;99.90;;;;;;5073408;28;20020;-72
2022/06/16 05:28:36;;;;;;;13.32;7.03;;;15.40;99.90;;;;;;5073045;28;20027;-72
2022/06/16 05:31:02;;;;;;;12.57;7.03;;;15.50;99.90;;;;;;5073140;28;20023;-72
2022/06/16 05:33:28;;;;;;;8.63;6.55;;;15.60;99.90;;;;;;5072043;28;20032;-72
2022/06/16 05:35:55;;;;;;;6.90;5.00;;;15.70;99.90;;;;;;5072664;28;20488;-71
2022/06/16 05:38:21;;;;;;;8.80;6.38;;;15.70;99.90;;;;;;5072338;28;20473;-72
2022/06/16 05:40:47;;;;;;;8.20;5.55;;;15.80;99.90;;;;;;5072678;28;20079;-72
2022/06/16 05:43:12;;;;;;;9.70;6.75;;;16.00;99.90;;;;;;5073027;28;20099;-71
2022/06/16 05:45:38;;;;;;;8.68;6.97;;;16.20;99.90;;;;;;5071884;28;20460;-71
2022/06/16 05:48:04;;;;;;;10.93;8.35;;;16.30;99.90;;;;;;5072683;28;20021;-72
2022/06/16 05:50:29;;;;;;;17.95;11.90;;;16.50;99.90;;;;;;5072874;28;20104;-72
2022/06/16 05:52:55;;;;;;;17.98;11.40;;;16.60;99.90;;;;;;5071987;28;20431;-71
2022/06/16 05:55:21;;;;;;;15.32;10.93;;;16.70;99.90;;;;;;5072766;28;20028;-72
2022/06/16 05:57:46;;;;;;;15.25;10.27;;;16.80;99.90;;;;;;5071890;28;20028;-71
2022/06/16 06:00:13;;;;;;;23.45;15.10;;;16.80;99.90;;;;;;5072786;28;20488;-72
2022/06/16 06:02:38;;;;;;;20.00;12.50;;;16.90;99.90;;;;;;5071334;28;20028;-73
2022/06/16 06:05:05;;;;;;;13.38;9.23;;;17.00;99.90;;;;;;5072564;28;20037;-72
2022/06/16 06:16:25;;;;;;;10.70;7.65;;;17.10;99.90;;;;;;5053919;28;20122;-72
2022/06/16 06:18:28;;;;;;;14.10;8.00;;;17.50;99.90;;;;;;5072476;28;20046;-72
2022/06/16 06:20:54;;;;;;;15.18;8.90;;;17.60;99.90;;;;;;5071796;28;20456;-72
2022/06/16 06:23:19;;;;;;;14.32;9.60;;;17.70;99.90;;;;;;5072323;28;20365;-71
2022/06/16 06:25:45;;;;;;;13.25;10.52;;;17.80;99.90;;;;;;5072502;28;20488;-72
2022/06/16 06:28:19;;;;;;;14.25;10.98;;;17.80;99.90;;;;;;5053572;28;20031;-71
2022/06/16 06:30:45;;;;;;;13.35;9.40;;;18.00;99.90;;;;;;5075308;28;20024;-72
2022/06/16 06:33:10;;;;;;;15.90;11.55;;;18.10;99.90;;;;;;5075240;28;20033;-72
2022/06/16 06:35:36;;;;;;;11.15;8.68;;;18.20;99.90;;;;;;5075740;28;20031;-72
2022/06/16 06:38:02;;;;;;;16.40;10.10;;;18.30;99.90;;;;;;5075901;28;20393;-72
2022/06/16 06:40:32;;;;;;;12.73;8.45;;;18.40;99.90;;;;;;5074385;28;20104;-72
2022/06/16 06:42:58;;;;;;;13.55;7.22;;;18.50;99.90;;;;;;5075079;28;20031;-72
2022/06/16 06:45:24;;;;;;;6.85;5.57;;;18.50;99.90;;;;;;5074272;28;20436;-72
2022/06/16 06:47:50;;;;;;;11.48;6.85;;;18.60;99.90;;;;;;5074570;28;20025;-73
2022/06/16 06:50:23;;;;;;;8.52;6.55;;;18.70;99.90;;;;;;5075917;28;20029;-72
2022/06/16 06:52:50;;;;;;;8.90;6.90;;;18.80;99.90;;;;;;5076300;28;20028;-72
2022/06/16 06:55:17;;;;;;;7.50;6.00;;;18.90;99.90;;;;;;5075908;28;20345;-72
2022/06/16 06:57:42;;;;;;;8.40;6.20;;;18.90;99.90;;;;;;5076267;28;20020;-72
2022/06/16 07:00:11;;;;;;;11.40;6.05;;;18.90;99.90;;;;;;5076512;28;20021;-72
2022/06/16 07:02:37;;;;;;;8.75;5.85;;;19.00;99.90;;;;;;5076309;28;20062;-72
2022/06/16 07:05:03;;;;;;;9.07;5.47;;;19.10;99.90;;;;;;5075541;28;20029;-72
2022/06/16 07:07:29;;;;;;;5.85;4.75;;;19.30;99.90;;;;;;5075824;28;20025;-72
2022/06/16 07:09:55;;;;;;;7.68;5.55;;;19.40;99.90;;;;;;5057802;28;20027;-72
2022/06/16 07:12:21;;;;;;;7.90;5.43;;;19.60;99.90;;;;;;5075702;28;20036;-72
2022/06/16 07:14:49;;;;;;;8.38;4.78;;;19.80;99.90;;;;;;5075509;28;20029;-71
2022/06/16 07:17:18;;;;;;;8.80;5.38;;;19.90;99.90;;;;;;5075630;28;20095;-71
2022/06/16 07:19:43;;;;;;;6.70;4.57;;;19.90;98.90;;;;;;5075602;28;20468;-70
2022/06/16 07:22:09;;;;;;;10.13;4.80;;;20.10;98.60;;;;;;5075724;28;20025;-71
2022/06/16 07:24:35;;;;;;;7.63;4.75;;;20.30;98.40;;;;;;5075827;28;20016;-71
2022/06/16 07:27:01;;;;;;;9.10;4.95;;;20.40;98.60;;;;;;5075336;28;20097;-70
2022/06/16 07:29:28;;;;;;;8.68;4.72;;;20.40;98.90;;;;;;5075673;28;20047;-71
2022/06/16 07:31:54;;;;;;;10.93;5.55;;;20.50;99.20;;;;;;5075228;28;20024;-70
2022/06/16 07:34:20;;;;;;;8.80;5.10;;;20.70;99.50;;;;;;5075014;28;20031;-70
2022/06/16 07:36:45;;;;;;;8.63;5.60;;;20.90;99.10;;;;;;5075574;28;20469;-71
2022/06/16 07:39:11;;;;;;;7.95;4.95;;;21.00;98.80;;;;;;5075578;28;20037;-71
2022/06/16 07:41:37;;;;;;;8.07;5.18;;;21.00;98.50;;;;;;5074302;28;20021;-71
2022/06/16 07:44:06;;;;;;;10.45;4.78;;;21.20;97.80;;;;;;5075173;28;20021;-71
2022/06/16 07:46:32;;;;;;;9.50;4.93;;;21.20;96.90;;;;;;5057120;28;20020;-71
2022/06/16 07:48:58;;;;;;;6.93;4.65;;;21.40;96.50;;;;;;5074752;28;20384;-71
2022/06/16 07:51:23;;;;;;;7.78;4.65;;;21.60;96.40;;;;;;5074968;28;20048;-71
2022/06/16 07:53:49;;;;;;;9.57;4.97;;;21.90;96.60;;;;;;5074923;28;20469;-71
2022/06/16 07:56:16;;;;;;;6.38;4.68;;;22.10;96.00;;;;;;5074767;28;20036;-71
2022/06/16 07:58:43;;;;;;;8.60;5.03;;;22.30;95.20;;;;;;5056768;28;20390;-71
2022/06/16 08:01:10;;;;;;;7.47;4.47;;;22.50;95.40;;;;;;5074977;28;20027;-70
2022/06/16 08:03:36;;;;;;;8.40;4.25;;;22.70;93.60;;;;;;5074903;28;20016;-71
2022/06/16 08:06:08;;;;;;;8.68;5.13;;;22.70;94.20;;;;;;5074550;28;20032;-70
2022/06/16 08:08:34;;;;;;;6.55;4.40;;;22.70;93.70;;;;;;5075197;28;20099;-71
2022/06/16 08:11:00;;;;;;;11.40;4.78;;;22.60;93.90;;;;;;5074501;28;20028;-71
2022/06/16 08:13:27;;;;;;;9.77;4.60;;;22.60;93.90;;;;;;5074509;28;20472;-71
2022/06/16 08:15:53;;;;;;;10.90;5.10;;;22.70;93.20;;;;;;5074627;28;20025;-70
2022/06/16 08:18:22;;;;;;;5.93;4.30;;;22.90;92.50;;;;;;5074341;28;20042;-70
2022/06/16 08:20:48;;;;;;;9.23;4.20;;;23.10;93.00;;;;;;5074258;28;20032;-70
2022/06/16 08:23:14;;;;;;;7.70;4.07;;;23.20;92.50;;;;;;5074303;28;20024;-70
2022/06/16 08:25:44;;;;;;;6.47;4.03;;;23.20;92.00;;;;;;5074121;28;20016;-70
2022/06/16 08:28:13;;;;;;;7.47;4.05;;;23.20;91.80;;;;;;5074291;28;20039;-70
2022/06/16 08:30:44;;;;;;;8.63;4.05;;;23.20;91.30;;;;;;5074185;28;20098;-70
2022/06/16 08:33:13;;;;;;;7.53;4.13;;;23.30;91.90;;;;;;5074178;28;20466;-70
2022/06/16 08:35:41;;;;;;;9.57;4.13;;;23.20;91.20;;;;;;5073983;28;20028;-70
2022/06/16 08:38:06;;;;;;;7.13;3.38;;;23.10;91.50;;;;;;5074276;28;20357;-70
2022/06/16 08:40:35;;;;;;;6.93;4.38;;;23.10;91.50;;;;;;5074216;28;20031;-70
2022/06/16 08:43:07;;;;;;;8.55;4.30;;;22.90;91.70;;;;;;5074454;28;20017;-70
2022/06/16 08:45:45;;;;;;;8.52;3.95;;;22.80;93.50;;;;;;5074112;28;20077;-71
2022/06/16 08:48:45;;;;;;;13.13;5.65;;;22.70;94.80;;;;;;5073938;28;20024;-71
2022/06/16 08:51:21;;;;;;;16.27;5.70;;;22.70;97.80;;;;;;5073746;28;20120;-71
2022/06/16 08:53:55;;;;;;;10.05;4.80;;;22.50;98.20;;;;;;5073760;28;20025;-71
2022/06/16 08:56:37;;;;;;;10.18;4.57;;;22.40;98.70;;;;;;5073728;28;20032;-71
2022/06/16 08:59:25;;;;;;;5.70;4.00;;;22.40;99.60;;;;;;5073765;28;20431;-71
2022/06/16 09:02:08;;;;;;;10.90;3.97;;;22.60;99.90;;;;;;5073596;28;20033;-71
2022/06/16 09:04:41;;;;;;;13.05;5.43;;;23.00;99.90;;;;;;5073092;28;20020;-69
2022/06/16 09:07:13;;;;;;;8.18;5.15;;;23.40;99.90;;;;;;5073449;28;20013;-69
2022/06/16 09:10:16;;;;;;;9.90;4.97;;;23.60;99.90;;;;;;5073532;28;20028;-69
2022/06/16 09:13:15;;;;;;;8.60;4.82;;;23.80;99.90;;;;;;5073941;28;20025;-69
2022/06/16 09:16:06;;;;;;;10.40;5.35;;;24.10;99.90;;;;;;5073547;28;20028;-69
2022/06/16 09:18:44;;;;;;;6.18;3.88;;;24.20;99.30;;;;;;5073282;28;20039;-68
2022/06/16 09:21:19;;;;;;;8.02;4.43;;;24.20;97.30;;;;;;5073369;28;20048;-69
2022/06/16 09:24:09;;;;;;;8.23;4.75;;;24.30;96.90;;;;;;5055380;28;20021;-69
2022/06/16 09:26:56;;;;;;;6.65;3.97;;;24.50;96.90;;;;;;5074172;28;20017;-69
2022/06/16 09:29:42;;;;;;;9.57;4.38;;;24.60;96.00;;;;;;5073311;28;20016;-69
2022/06/16 09:32:11;;;;;;;8.15;4.32;;;24.60;94.80;;;;;;5073363;28;20020;-69
2022/06/16 09:34:54;;;;;;;8.07;4.00;;;24.70;96.00;;;;;;5073095;28;20500;-69
2022/06/16 09:37:35;;;;;;;8.15;3.58;;;24.70;94.80;;;;;;5073579;28;20069;-69
2022/06/16 09:40:10;;;;;;;6.47;3.70;;;24.70;93.40;;;;;;5073548;28;20052;-68
2022/06/16 09:42:42;;;;;;;6.47;3.97;;;24.60;94.20;;;;;;5073148;28;20046;-68
2022/06/16 09:45:34;;;;;;;8.57;4.00;;;24.60;94.80;;;;;;5073428;28;20020;-68
2022/06/16 09:48:06;;;;;;;16.70;4.00;;;24.50;95.90;;;;;;5073471;28;20496;-67
2022/06/16 09:50:54;;;;;;;12.25;3.72;;;24.30;93.00;;;;;;5072962;28;20024;-68
2022/06/16 09:53:49;;;;;;;11.38;3.65;;;23.60;92.90;;;;;;5073675;28;20074;-68
2022/06/16 09:56:46;;;;;;;7.38;2.50;;;22.40;96.60;;;;;;5073054;28;20035;-67
2022/06/16 09:59:21;;;;;;;6.47;2.92;;;20.90;98.20;;;;;;5073081;28;20035;-68
2022/06/16 10:02:00;;;;;;;10.60;2.97;;;19.70;99.90;;;;;;5073250;28;20111;-68
2022/06/16 10:04:26;;;;;;;8.85;2.95;;;19.00;99.90;;;;;;5073552;28;20021;-68
2022/06/16 10:07:14;;;;;;;9.52;3.92;;;18.50;99.90;;;;;;5059284;28;20039;-68
2022/06/16 10:09:43;;;;;;;9.60;3.05;;;18.20;99.90;;;;;;5077218;28;20020;-68
2022/06/16 10:12:39;;;;;;;8.77;2.95;;;18.00;99.90;;;;;;5076846;28;20059;-68
2022/06/16 10:15:13;;;;;;;9.50;3.58;;;17.90;99.90;;;;;;5077144;28;20024;-67
2022/06/16 10:17:42;;;;;;;7.78;3.63;;;17.90;99.90;;;;;;5076999;28;20033;-68
2022/06/16 10:20:09;;;;;;;9.70;3.15;;;17.90;99.90;;;;;;5076470;28;20051;-67
2022/06/16 10:22:38;;;;;;;4.97;2.38;;;17.90;99.90;;;;;;5076546;28;20028;-67
2022/06/16 10:25:09;;;;;;;7.20;2.17;;;18.00;99.90;;;;;;5076396;28;20052;-67
2022/06/16 10:27:44;;;;;;;8.20;2.45;;;18.00;99.90;;;;;;5076511;28;20027;-67
2022/06/16 10:30:18;;;;;;;4.90;2.05;;;18.10;99.90;;;;;;5076489;28;20082;-67
2022/06/16 10:32:47;;;;;;;4.03;1.80;;;18.10;99.90;;;;;;5076453;28;20051;-67
2022/06/16 10:35:20;;;;;;;4.78;1.95;;;18.10;99.90;;;;;;5076092;28;20389;-68
2022/06/16 10:37:50;;;;;;;4.68;1.95;;;18.20;99.90;;;;;;5076201;28;20028;-67
2022/06/16 10:40:34;;;;;;;6.65;1.95;;;18.20;99.90;;;;;;5074925;28;20056;-68
2022/06/16 10:43:06;;;;;;;5.15;1.67;;;18.40;99.90;;;;;;5076120;28;20090;-68
2022/06/16 10:45:34;;;;;;;5.30;2.40;;;18.50;99.90;;;;;;5076028;28;20025;-67
2022/06/16 10:48:35;;;;;;;2.85;1.70;;;18.70;99.90;;;;;;5074890;28;20021;-67
2022/06/16 10:51:06;;;;;;;3.28;1.40;;;18.80;99.90;;;;;;5076083;28;20481;-67
2022/06/16 10:53:36;;;;;;;4.18;1.55;;;18.90;99.90;;;;;;5075849;28;20032;-67
2022/06/16 10:56:20;;;;;;;3.10;1.60;;;18.90;99.90;;;;;;5075864;28;20036;-68
2022/06/16 10:58:57;;;;;;;2.95;1.35;;;19.00;99.90;;;;;;5075851;28;20028;-68
2022/06/16 11:01:28;;;;;;;3.50;1.50;;;19.10;99.90;;;;;;5070462;28;20396;-68
2022/06/16 11:04:08;;;;;;;4.05;1.52;;;19.40;99.90;;;;;;5075420;28;20070;-67
2022/06/16 11:06:37;;;;;;;4.72;1.40;;;19.80;99.90;;;;;;5075742;28;20056;-68
2022/06/16 11:09:05;;;;;;;2.63;1.45;;;20.10;99.90;;;;;;5075570;28;20029;-67
2022/06/16 11:11:57;;;;;;;1.77;1.17;;;20.50;99.90;;;;;;5075643;28;20036;-67
2022/06/16 11:14:34;;;;;;;5.45;1.40;;;20.80;99.90;;;;;;5068543;28;20481;-68
2022/06/16 11:17:05;;;;;;;4.65;1.65;;;21.00;99.90;;;;;;5073960;28;20032;-68
2022/06/16 11:19:37;;;;;;;3.90;1.48;;;21.20;99.90;;;;;;5075265;28;20028;-68
2022/06/16 11:22:13;;;;;;;2.78;1.40;;;21.40;99.90;;;;;;5072837;28;20033;-68
2022/06/16 11:24:39;;;;;;;2.30;1.33;;;21.50;99.90;;;;;;5073171;28;20354;-68
2022/06/16 11:27:15;;;;;;;4.00;1.55;;;21.60;99.90;;;;;;5075309;28;20021;-68
2022/06/16 11:29:42;;;;;;;4.57;1.50;;;21.70;99.90;;;;;;5075300;28;20485;-68
2022/06/16 11:32:35;;;;;;;3.60;1.48;;;21.80;99.90;;;;;;5075007;28;20029;-68
2022/06/16 11:35:00;;;;;;;3.10;1.60;;;22.00;99.90;;;;;;5074993;28;20103;-68
2022/06/16 11:37:55;;;;;;;3.08;1.40;;;22.10;99.90;;;;;;5057117;28;20135;-68
2022/06/16 11:40:40;;;;;;;2.95;1.73;;;22.30;99.90;;;;;;5051504;28;20067;-68
2022/06/16 11:43:37;;;;;;;3.42;1.60;;;22.40;99.90;;;;;;5069748;28;20029;-69
2022/06/16 11:46:14;;;;;;;5.38;1.80;;;22.60;99.60;;;;;;5074771;28;20069;-68
2022/06/16 11:48:42;;;;;;;6.68;2.00;;;22.80;99.90;;;;;;5067950;28;20059;-69
2022/06/16 11:51:30;;;;;;;3.58;2.20;;;23.00;99.90;;;;;;5074856;28;20389;-69
2022/06/16 11:54:18;;;;;;;5.10;1.70;;;23.10;99.90;;;;;;5072510;28;20050;-68
2022/06/16 11:56:58;;;;;;;3.17;1.45;;;23.20;97.40;;;;;;5074695;28;20029;-68
2022/06/16 11:59:44;;;;;;;4.03;1.58;;;23.30;96.20;;;;;;5074693;28;20029;-69
2022/06/16 12:02:18;;;;;;;3.33;1.63;;;23.40;92.00;;;;;;5074407;28;20546;-69
2022/06/16 12:05:09;;;;;;;2.65;1.60;;;23.50;94.40;;;;;;5056179;28;20082;-69
2022/06/16 12:07:44;;;;;;;3.55;1.50;;;23.60;94.70;;;;;;5074559;28;20024;-69
2022/06/16 12:10:31;;;;;;;5.43;1.95;;;23.80;95.60;;;;;;5074497;28;20017;-69
2022/06/16 12:13:19;;;;;;;3.88;2.00;;;24.00;96.30;;;;;;5074502;28;20028;-69
2022/06/16 12:16:00;;;;;;;5.38;1.80;;;24.10;94.70;;;;;;5073979;28;20070;-69
2022/06/16 12:18:49;;;;;;;3.03;2.08;;;24.20;95.70;;;;;;5074301;28;20024;-69
2022/06/16 12:21:40;;;;;;;3.65;1.60;;;24.00;95.60;;;;;;5074163;28;20035;-69
2022/06/16 12:24:44;;;;;;;3.53;1.40;;;23.70;97.00;;;;;;5070420;28;20025;-68
2022/06/16 12:27:20;;;;;;;5.45;2.15;;;23.30;96.40;;;;;;5003381;28;20030;-69
2022/06/16 12:29:52;;;;;;;8.02;2.78;;;22.80;97.70;;;;;;5073832;28;20532;-69
2022/06/16 12:32:34;;;;;;;5.93;2.72;;;22.20;99.10;;;;;;5074196;28;20020;-68
2022/06/16 12:35:25;;;;;;;6.13;2.75;;;21.60;99.90;;;;;;5073743;28;20027;-68
2022/06/16 12:37:56;;;;;;;4.60;2.55;;;21.00;99.90;;;;;;5074148;28;20017;-68
2022/06/16 12:40:37;;;;;;;7.13;2.65;;;20.60;99.90;;;;;;5056055;28;20032;-68
2022/06/16 12:43:10;;;;;;;6.70;2.78;;;20.20;99.90;;;;;;5073819;28;20530;-68
2022/06/16 12:45:41;;;;;;;5.50;2.60;;;19.90;99.90;;;;;;5073595;28;20031;-68
2022/06/16 12:48:15;;;;;;;3.60;2.67;;;19.70;99.90;;;;;;5071648;28;20013;-68
2022/06/16 12:50:55;;;;;;;7.00;2.53;;;19.70;99.90;;;;;;5073494;28;20020;-69
2022/06/16 12:53:35;;;;;;;5.50;2.90;;;19.70;99.90;;;;;;5067810;28;20526;-69
2022/06/16 12:56:12;;;;;;;4.20;2.63;;;19.70;99.90;;;;;;5073577;28;20226;-68
2022/06/16 12:58:51;;;;;;;4.72;2.33;;;19.70;99.90;;;;;;5073413;28;20029;-68
2022/06/16 13:01:18;;;;;;;4.82;2.60;;;19.70;99.90;;;;;;5073571;28;20494;-69
2022/06/16 13:04:03;;;;;;;4.32;2.33;;;19.70;99.90;;;;;;5073471;28;20464;-68
2022/06/16 13:06:30;;;;;;;8.63;3.78;;;19.80;99.90;;;;;;5073455;28;20036;-69
2022/06/16 13:09:04;;;;;;;6.63;2.92;;;19.70;99.90;;;;;;5055475;28;20020;-69
2022/06/16 13:11:45;;;;;;;4.28;2.63;;;19.70;99.90;;;;;;5073387;28;20020;-68
2022/06/16 13:14:33;;;;;;;6.93;3.13;;;19.60;99.90;;;;;;5073115;28;20024;-68
2022/06/16 13:17:02;;;;;;;5.68;2.60;;;19.50;99.90;;;;;;5072624;28;20036;-68
2022/06/16 13:19:47;;;;;;;7.32;3.10;;;19.50;99.90;;;;;;5073089;28;20036;-68
2022/06/16 13:22:22;;;;;;;5.20;2.95;;;19.50;99.90;;;;;;5071789;28;20031;-68
2022/06/16 13:24:51;;;;;;;5.88;2.67;;;19.70;99.90;;;;;;5072447;28;20297;-68
2022/06/16 13:27:38;;;;;;;8.23;2.40;;;19.70;99.90;;;;;;5071306;28;20024;-69
2022/06/16 13:30:09;;;;;;;11.00;2.78;;;19.80;99.90;;;;;;5071281;28;20051;-69
2022/06/16 13:32:50;;;;;;;5.53;2.42;;;19.80;99.90;;;;;;5071296;28;20416;-69
2022/06/16 13:35:15;;;;;;;;;;;19.80;99.90;;;;;;5072142;28;20047;-68